createdAt,value
2023-10-04T00:00:17.213Z,101788.91
2023-10-04T00:02:22.950Z,101781.78
2023-10-04T00:04:27.347Z,101775.53
2023-10-04T00:06:32.931Z,101777.25
2023-10-04T00:08:37.201Z,101781.72
2023-10-04T00:10:41.602Z,101785.22
2023-10-04T00:12:45.467Z,101786.16
2023-10-04T00:14:50.449Z,101788.81
2023-10-04T00:16:56.324Z,101779.28
2023-10-04T00:19:00.802Z,101780.31
2023-10-04T00:21:07.876Z,101786.66
2023-10-04T00:23:14.673Z,101783.25
2023-10-04T00:25:22.922Z,101795.91
2023-10-04T00:27:28.083Z,101789.91
2023-10-04T00:29:32.550Z,101783.91
2023-10-04T00:31:38.106Z,101793.75
2023-10-04T00:33:43.159Z,101796.50
2023-10-04T00:35:48.105Z,101787.84
2023-10-04T00:37:57.795Z,101787.06
2023-10-04T00:40:02.091Z,101787.16
2023-10-04T00:42:07.240Z,101791.59
2023-10-04T00:44:12.333Z,101786.34
2023-10-04T00:46:15.786Z,101784.72
2023-10-04T00:48:24.646Z,101775.91
2023-10-04T00:50:33.676Z,101788.44
2023-10-04T00:52:39.231Z,101779.59
2023-10-04T00:54:44.625Z,101781.47
2023-10-04T00:56:49.096Z,101778.03
2023-10-04T00:58:55.589Z,101787.09
2023-10-04T01:00:58.978Z,101781.97
2023-10-04T01:03:04.159Z,101786.44
2023-10-04T01:05:09.670Z,101792.69
2023-10-04T01:07:17.995Z,101783.84
2023-10-04T01:09:24.625Z,101776.84
2023-10-04T01:11:36.164Z,101771.53
2023-10-04T01:13:44.148Z,101771.59
2023-10-04T01:15:50.776Z,101774.25
2023-10-04T01:17:56.042Z,101768.97
2023-10-04T01:20:00.632Z,101757.47
2023-10-04T01:22:07.697Z,101763.66
2023-10-04T01:24:12.769Z,101762.78
2023-10-04T01:26:27.487Z,101764.66
2023-10-04T01:28:32.430Z,101762.78
2023-10-04T01:30:37.193Z,101760.13
2023-10-04T01:32:41.531Z,101749.50
2023-10-04T01:34:46.539Z,101741.53
2023-10-04T01:36:50.978Z,101744.28
2023-10-04T01:38:57.943Z,101747.72
2023-10-04T01:41:02.355Z,101748.56
2023-10-04T01:43:17.315Z,101739.66
2023-10-04T01:45:22.683Z,101742.22
2023-10-04T01:47:27.703Z,101743.97
2023-10-04T01:49:34.118Z,101745.56
2023-10-04T01:51:37.368Z,101748.22
2023-10-04T01:53:44.002Z,101745.50
2023-10-04T01:55:49.910Z,101741.03
2023-10-04T01:57:54.691Z,101748.91
2023-10-04T01:59:57.949Z,101745.34
2023-10-04T02:02:02.614Z,101750.47
2023-10-04T02:04:07.197Z,101745.16
2023-10-04T02:06:12.115Z,101752.28
2023-10-04T02:08:19.132Z,101736.44
2023-10-04T02:10:24.028Z,101739.94
2023-10-04T02:12:30.005Z,101744.31
2023-10-04T02:14:35.250Z,101743.34
2023-10-04T02:16:39.801Z,101746.00
2023-10-04T02:18:44.082Z,101745.06
2023-10-04T02:20:50.900Z,101746.00
2023-10-04T02:22:57.628Z,101751.31
2023-10-04T02:25:02.840Z,101744.31
2023-10-04T02:27:08.646Z,101745.25
2023-10-04T02:29:14.429Z,101736.44
2023-10-04T02:31:18.096Z,101734.72
2023-10-04T02:33:23.008Z,101730.25
2023-10-04T02:35:28.842Z,101734.72
2023-10-04T02:37:33.063Z,101736.44
2023-10-04T02:39:38.880Z,101726.66
2023-10-04T02:41:44.768Z,101742.59
2023-10-04T02:43:47.678Z,101731.13
2023-10-04T02:45:54.397Z,101730.25
2023-10-04T02:47:59.341Z,101734.63
2023-10-04T02:50:03.905Z,101743.44
2023-10-04T02:52:12.774Z,101744.31
2023-10-04T02:54:18.150Z,101742.41
2023-10-04T02:56:24.145Z,101722.06
2023-10-04T02:58:30.628Z,101727.34
2023-10-04T03:00:44.140Z,101722.91
2023-10-04T03:02:52.290Z,101714.00
2023-10-04T03:04:57.668Z,101715.69
2023-10-04T03:07:02.128Z,101722.72
2023-10-04T03:09:08.119Z,101721.00
2023-10-04T03:11:13.675Z,101728.03
2023-10-04T03:13:23.736Z,101729.75
2023-10-04T03:15:31.359Z,101714.56
2023-10-04T03:17:36.111Z,101705.75
2023-10-04T03:19:43.213Z,101716.28
2023-10-04T03:21:47.977Z,101710.97
2023-10-04T03:23:56.226Z,101715.34
2023-10-04T03:26:05.524Z,101710.91
2023-10-04T03:28:11.666Z,101697.63
2023-10-04T03:30:17.361Z,101701.06
2023-10-04T03:32:21.632Z,101696.59
2023-10-04T03:34:25.732Z,101706.28
2023-10-04T03:36:35.969Z,101696.50
2023-10-04T03:38:43.942Z,101698.22
2023-10-04T03:40:47.520Z,101688.47
2023-10-04T03:42:53.462Z,101699.94
2023-10-04T03:44:57.406Z,101694.63
2023-10-04T03:47:01.967Z,101691.13
2023-10-04T03:49:07.972Z,101687.59
2023-10-04T03:51:11.986Z,101686.75
2023-10-04T03:53:18.107Z,101684.28
2023-10-04T03:55:21.934Z,101674.50
2023-10-04T03:57:24.513Z,101671.00
2023-10-04T03:59:28.158Z,101687.00
2023-10-04T04:01:32.729Z,101679.72
2023-10-04T04:03:37.012Z,101678.78
2023-10-04T04:05:43.144Z,101670.91
2023-10-04T04:07:46.987Z,101672.69
2023-10-04T04:09:51.934Z,101673.66
2023-10-04T04:11:55.411Z,101664.81
2023-10-04T04:14:00.218Z,101663.09
2023-10-04T04:16:11.069Z,101656.94
2023-10-04T04:18:21.552Z,101646.31
2023-10-04T04:20:29.764Z,101663.97
2023-10-04T04:22:33.789Z,101658.66
2023-10-04T04:24:37.958Z,101650.59
2023-10-04T04:26:43.381Z,101654.19
2023-10-04T04:28:49.227Z,101641.78
2023-10-04T04:30:55.079Z,101639.03
2023-10-04T04:32:59.014Z,101638.94
2023-10-04T04:35:04.278Z,101631.91
2023-10-04T04:37:09.798Z,101639.72
2023-10-04T04:39:19.688Z,101643.34
2023-10-04T04:41:26.923Z,101637.06
2023-10-04T04:43:38.160Z,101630.06
2023-10-04T04:45:42.863Z,101625.75
2023-10-04T04:47:47.148Z,101623.94
2023-10-04T04:49:51.109Z,101617.72
2023-10-04T04:51:53.731Z,101627.41
2023-10-04T04:53:57.500Z,101623.03
2023-10-04T04:56:08.085Z,101621.28
2023-10-04T04:58:14.557Z,101626.53
2023-10-04T05:00:34.770Z,101633.63
2023-10-04T05:02:38.460Z,101623.94
2023-10-04T05:04:44.792Z,101628.31
2023-10-04T05:06:48.522Z,101632.75
2023-10-04T05:08:52.332Z,101628.31
2023-10-04T05:10:57.326Z,101617.72
2023-10-04T05:13:02.352Z,101630.06
2023-10-04T05:15:20.200Z,101615.97
2023-10-04T05:17:25.120Z,101614.25
2023-10-04T05:19:30.646Z,101619.56
2023-10-04T05:21:35.861Z,101617.72
2023-10-04T05:23:40.042Z,101617.81
2023-10-04T05:25:43.551Z,101608.94
2023-10-04T05:27:48.449Z,101610.78
2023-10-04T05:29:51.634Z,101612.63
2023-10-04T05:31:55.433Z,101601.16
2023-10-04T05:34:00.828Z,101602.09
2023-10-04T05:36:05.600Z,101614.53
2023-10-04T05:38:08.585Z,101615.38
2023-10-04T05:40:19.022Z,101596.78
2023-10-04T05:42:22.601Z,101598.50
2023-10-04T05:44:26.080Z,101591.47
2023-10-04T05:46:29.789Z,101598.50
2023-10-04T05:48:33.467Z,101605.53
2023-10-04T05:50:38.732Z,101602.88
2023-10-04T05:52:42.692Z,101602.88
2023-10-04T05:54:48.110Z,101608.94
2023-10-04T05:56:51.741Z,101606.22
2023-10-04T05:58:55.476Z,101599.13
2023-10-04T06:00:58.979Z,101604.44
2023-10-04T06:03:06.267Z,101596.47
2023-10-04T06:05:09.539Z,101599.03
2023-10-04T06:07:14.465Z,101601.59
2023-10-04T06:09:29.465Z,101596.09
2023-10-04T06:11:33.050Z,101597.81
2023-10-04T06:13:36.462Z,101598.59
2023-10-04T06:15:43.135Z,101606.56
2023-10-04T06:17:47.885Z,101607.31
2023-10-04T06:19:55.768Z,101604.66
2023-10-04T06:21:59.565Z,101597.53
2023-10-04T06:24:04.750Z,101602.78
2023-10-04T06:26:08.369Z,101600.97
2023-10-04T06:28:12.073Z,101598.22
2023-10-04T06:30:16.619Z,101603.53
2023-10-04T06:32:22.000Z,101600.78
2023-10-04T06:34:24.492Z,101604.31
2023-10-04T06:36:31.033Z,101590.94
2023-10-04T06:38:34.545Z,101609.44
2023-10-04T06:40:40.057Z,101603.94
2023-10-04T06:42:47.161Z,101610.03
2023-10-04T06:44:51.292Z,101600.16
2023-10-04T06:46:55.360Z,101602.81
2023-10-04T06:48:58.716Z,101601.78
2023-10-04T06:51:02.184Z,101598.28
2023-10-04T06:53:07.027Z,101599.97
2023-10-04T06:55:11.700Z,101607.88
2023-10-04T06:57:19.325Z,101601.63
2023-10-04T06:59:23.730Z,101603.25
2023-10-04T07:01:27.490Z,101597.94
2023-10-04T07:03:31.170Z,101598.72
2023-10-04T07:05:37.504Z,101602.22
2023-10-04T07:07:41.195Z,101603.94
2023-10-04T07:09:45.055Z,101603.06
2023-10-04T07:11:49.338Z,101595.88
2023-10-04T07:13:55.891Z,101601.19
2023-10-04T07:15:59.353Z,101603.84
2023-10-04T07:18:03.332Z,101604.59
2023-10-04T07:20:08.789Z,101609.91
2023-10-04T07:22:17.928Z,101611.63
2023-10-04T07:24:24.241Z,101619.59
2023-10-04T07:26:27.715Z,101611.63
2023-10-04T07:28:30.132Z,101612.56
2023-10-04T07:30:37.004Z,101623.13
2023-10-04T07:32:41.299Z,101629.28
2023-10-04T07:34:45.334Z,101618.66
2023-10-04T07:36:48.962Z,101622.06
2023-10-04T07:38:52.685Z,101623.78
2023-10-04T07:40:56.928Z,101609.56
2023-10-04T07:43:02.276Z,101606.13
2023-10-04T07:45:07.060Z,101621.03
2023-10-04T07:47:12.036Z,101617.44
2023-10-04T07:49:15.248Z,101623.53
2023-10-04T07:51:19.027Z,101620.59
2023-10-04T07:53:23.144Z,101619.47
2023-10-04T07:55:27.330Z,101611.38
2023-10-04T07:57:30.161Z,101612.06
2023-10-04T07:59:33.931Z,101605.81
2023-10-04T08:01:40.636Z,101608.38
2023-10-04T08:03:45.721Z,101610.00
2023-10-04T08:05:49.298Z,101617.00
2023-10-04T08:07:54.189Z,101619.41
2023-10-04T08:09:59.858Z,101623.69
2023-10-04T08:12:03.455Z,101611.13
2023-10-04T08:14:08.821Z,101621.56
2023-10-04T08:16:12.518Z,101628.53
2023-10-04T08:18:18.332Z,101617.78
2023-10-04T08:20:25.348Z,101614.19
2023-10-04T08:22:31.144Z,101612.31
2023-10-04T08:24:34.859Z,101619.25
2023-10-04T08:26:38.689Z,101607.53
2023-10-04T08:28:43.347Z,101610.97
2023-10-04T08:30:47.025Z,101601.94
2023-10-04T08:32:52.301Z,101611.53
2023-10-04T08:34:56.395Z,101615.81
2023-10-04T08:37:01.279Z,101610.41
2023-10-04T08:39:12.232Z,101615.53
2023-10-04T08:41:18.076Z,101605.63
2023-10-04T08:43:21.741Z,101611.72
2023-10-04T08:45:26.840Z,101609.06
2023-10-04T08:47:31.000Z,101605.47
2023-10-04T08:49:44.136Z,101602.69
2023-10-04T08:51:54.835Z,101608.88
2023-10-04T08:54:11.964Z,101614.19
2023-10-04T08:56:18.151Z,101614.19
2023-10-04T08:58:22.453Z,101607.16
2023-10-04T09:00:32.062Z,101601.94
2023-10-04T09:02:37.212Z,101609.91
2023-10-04T09:04:42.261Z,101598.41
2023-10-04T09:06:46.369Z,101598.41
2023-10-04T09:08:51.043Z,101604.50
2023-10-04T09:10:56.551Z,101599.25
2023-10-04T09:13:04.573Z,101596.50
2023-10-04T09:15:09.370Z,101591.97
2023-10-04T09:17:15.386Z,101592.69
2023-10-04T09:19:19.648Z,101599.56
2023-10-04T09:21:23.827Z,101604.50
2023-10-04T09:23:29.470Z,101621.03
2023-10-04T09:25:40.462Z,101618.94
2023-10-04T09:27:56.472Z,101618.63
2023-10-04T09:30:00.946Z,101617.38
2023-10-04T09:32:06.784Z,101624.13
2023-10-04T09:34:17.074Z,101615.09
2023-10-04T09:36:34.783Z,101616.22
2023-10-04T09:38:39.440Z,101614.19
2023-10-04T09:40:52.020Z,101625.06
2023-10-04T09:42:57.714Z,101627.03
2023-10-04T09:45:09.590Z,101623.75
2023-10-04T09:47:13.382Z,101631.16
2023-10-04T09:49:17.627Z,101621.13
2023-10-04T09:51:23.602Z,101627.22
2023-10-04T09:53:26.219Z,101609.50
2023-10-04T09:55:33.703Z,101615.69
2023-10-04T09:57:39.433Z,101623.75
2023-10-04T09:59:47.027Z,101605.47
2023-10-04T10:01:55.637Z,101616.69
2023-10-04T10:04:01.208Z,101615.38
2023-10-04T10:06:07.688Z,101612.66
2023-10-04T10:08:15.512Z,101618.09
2023-10-04T10:10:22.523Z,101616.53
2023-10-04T10:12:26.953Z,101603.06
2023-10-04T10:14:33.353Z,101595.66
2023-10-04T10:16:39.121Z,101615.63
2023-10-04T10:18:43.550Z,101615.81
2023-10-04T10:20:48.095Z,101602.00
2023-10-04T10:23:15.972Z,101590.94
2023-10-04T10:25:18.743Z,101577.81
2023-10-04T10:27:23.978Z,101584.31
2023-10-04T10:29:31.219Z,101593.56
2023-10-04T10:31:36.818Z,101586.88
2023-10-04T10:33:41.927Z,101585.28
2023-10-04T10:36:01.415Z,101584.97
2023-10-04T10:38:48.814Z,101584.09
2023-10-04T10:40:54.925Z,101578.72
2023-10-04T10:43:12.073Z,101582.78
2023-10-04T10:45:29.869Z,101586.78
2023-10-04T10:47:49.378Z,101585.69
2023-10-04T10:50:00.787Z,101590.44
2023-10-04T10:52:03.878Z,101585.22
2023-10-04T10:54:09.107Z,101579.97
2023-10-04T10:56:16.157Z,101561.13
2023-10-04T10:58:20.660Z,101577.06
2023-10-04T11:00:25.659Z,101576.22
2023-10-04T11:02:30.389Z,101575.47
2023-10-04T11:04:33.622Z,101578.97
2023-10-04T11:06:39.848Z,101565.00
2023-10-04T11:08:44.594Z,101571.56
2023-10-04T11:10:48.801Z,101567.47
2023-10-04T11:12:56.925Z,101569.03
2023-10-04T11:15:01.732Z,101560.13
2023-10-04T11:17:06.964Z,101562.22
2023-10-04T11:19:12.210Z,101558.69
2023-10-04T11:21:17.078Z,101564.03
2023-10-04T11:23:21.194Z,101558.09
2023-10-04T11:25:27.894Z,101569.88
2023-10-04T11:27:33.171Z,101569.53
2023-10-04T11:29:40.250Z,101565.38
2023-10-04T11:31:46.551Z,101557.22
2023-10-04T11:33:58.001Z,101564.28
2023-10-04T11:36:04.215Z,101561.84
2023-10-04T11:38:17.226Z,101560.38
2023-10-04T11:40:27.986Z,101552.47
2023-10-04T11:42:33.490Z,101555.91
2023-10-04T11:44:43.349Z,101571.19
2023-10-04T11:46:56.925Z,101553.34
2023-10-04T11:49:13.280Z,101560.63
2023-10-04T11:51:30.355Z,101565.00
2023-10-04T11:53:35.765Z,101555.66
2023-10-04T11:55:40.434Z,101556.97
2023-10-04T11:57:44.464Z,101551.00
2023-10-04T11:59:50.082Z,101550.16
2023-10-04T12:01:56.653Z,101556.59
2023-10-04T12:04:04.193Z,101551.38
2023-10-04T12:06:09.196Z,101549.66
2023-10-04T12:08:13.106Z,101555.78
2023-10-04T12:10:17.553Z,101548.97
2023-10-04T12:12:22.151Z,101548.56
2023-10-04T12:14:25.052Z,101544.81
2023-10-04T12:16:30.791Z,101544.56
2023-10-04T12:18:33.921Z,101540.19
2023-10-04T12:20:38.169Z,101546.28
2023-10-04T12:22:41.386Z,101550.16
2023-10-04T12:24:46.434Z,101551.25
2023-10-04T12:26:56.644Z,101551.09
2023-10-04T12:29:00.522Z,101542.22
2023-10-04T12:31:03.755Z,101553.50
2023-10-04T12:33:10.336Z,101537.94
2023-10-04T12:35:14.932Z,101548.84
2023-10-04T12:37:18.910Z,101551.63
2023-10-04T12:39:23.072Z,101551.03
2023-10-04T12:41:27.182Z,101536.88
2023-10-04T12:43:31.574Z,101543.31
2023-10-04T12:45:35.310Z,101570.06
2023-10-04T12:47:39.627Z,101541.41
2023-10-04T12:49:45.328Z,101543.06
2023-10-04T12:51:49.016Z,101544.69
2023-10-04T12:53:53.588Z,101536.69
2023-10-04T12:55:57.378Z,101542.03
2023-10-04T12:58:01.074Z,101536.59
2023-10-04T13:00:15.304Z,101534.75
2023-10-04T13:02:20.061Z,101543.75
2023-10-04T13:04:24.190Z,101542.91
2023-10-04T13:06:29.467Z,101534.75
2023-10-04T13:08:33.425Z,101528.31
2023-10-04T13:10:38.463Z,101531.38
2023-10-04T13:12:43.190Z,101546.59
2023-10-04T13:14:47.149Z,101541.84
2023-10-04T13:16:51.127Z,101540.75
2023-10-04T13:18:55.793Z,101536.88
2023-10-04T13:20:59.998Z,101531.91
2023-10-04T13:23:06.513Z,101525.97
2023-10-04T13:25:11.157Z,101530.31
2023-10-04T13:27:15.066Z,101526.09
2023-10-04T13:29:18.667Z,101528.97
2023-10-04T13:31:23.649Z,101531.91
2023-10-04T13:33:27.637Z,101529.34
2023-10-04T13:35:31.420Z,101534.81
2023-10-04T13:37:35.262Z,101534.72
2023-10-04T13:39:40.638Z,101533.38
2023-10-04T13:41:44.706Z,101533.88
2023-10-04T13:43:50.067Z,101527.31
2023-10-04T13:45:54.762Z,101538.25
2023-10-04T13:48:05.042Z,101544.06
2023-10-04T13:50:09.305Z,101540.91
2023-10-04T13:52:13.390Z,101526.81
2023-10-04T13:54:17.436Z,101524.25
2023-10-04T13:56:23.721Z,101531.41
2023-10-04T13:58:27.677Z,101539.44
2023-10-04T14:00:30.257Z,101521.44
2023-10-04T14:02:34.032Z,101528.50
2023-10-04T14:04:37.741Z,101518.53
2023-10-04T14:06:41.709Z,101531.06
2023-10-04T14:08:45.465Z,101518.66
2023-10-04T14:10:50.684Z,101521.19
2023-10-04T14:12:59.537Z,101522.91
2023-10-04T14:15:04.010Z,101518.41
2023-10-04T14:17:10.555Z,101520.38
2023-10-04T14:19:14.531Z,101509.78
2023-10-04T14:21:19.209Z,101498.97
2023-10-04T14:23:25.510Z,101508.56
2023-10-04T14:25:29.969Z,101505.16
2023-10-04T14:27:34.829Z,101510.97
2023-10-04T14:29:42.624Z,101501.00
2023-10-04T14:31:46.494Z,101514.13
2023-10-04T14:33:50.285Z,101515.34
2023-10-04T14:35:59.634Z,101517.16
2023-10-04T14:38:04.695Z,101514.34
2023-10-04T14:40:15.786Z,101512.41
2023-10-04T14:42:20.239Z,101514.34
2023-10-04T14:44:23.979Z,101518.84
2023-10-04T14:46:29.147Z,101515.09
2023-10-04T14:48:33.304Z,101515.81
2023-10-04T14:50:39.178Z,101517.53
2023-10-04T14:52:45.742Z,101523.63
2023-10-04T14:54:50.368Z,101525.53
2023-10-04T14:56:54.994Z,101527.50
2023-10-04T14:59:00.722Z,101538.41
2023-10-04T15:01:07.603Z,101536.72
2023-10-04T15:03:14.242Z,101536.22
2023-10-04T15:05:19.937Z,101525.03
2023-10-04T15:07:24.291Z,101521.81
2023-10-04T15:09:29.162Z,101525.69
2023-10-04T15:11:35.361Z,101523.25
2023-10-04T15:13:38.897Z,101525.22
2023-10-04T15:15:54.383Z,101520.94
2023-10-04T15:18:09.724Z,101517.66
2023-10-04T15:20:17.620Z,101531.00
2023-10-04T15:22:29.209Z,101517.13
2023-10-04T15:24:33.737Z,101515.66
2023-10-04T15:26:37.467Z,101520.41
2023-10-04T15:28:47.721Z,101513.59
2023-10-04T15:30:52.793Z,101513.91
2023-10-04T15:32:57.240Z,101513.41
2023-10-04T15:35:02.668Z,101496.00
2023-10-04T15:37:08.530Z,101501.59
2023-10-04T15:39:22.138Z,101504.50
2023-10-04T15:41:26.461Z,101493.19
2023-10-04T15:43:31.330Z,101487.13
2023-10-04T15:45:35.409Z,101490.75
2023-10-04T15:47:38.957Z,101488.06
2023-10-04T15:49:43.033Z,101488.19
2023-10-04T15:51:46.284Z,101473.00
2023-10-04T15:53:53.727Z,101480.31
2023-10-04T15:55:58.719Z,101490.13
2023-10-04T15:58:03.229Z,101489.38
2023-10-04T16:00:12.761Z,101496.53
2023-10-04T16:02:16.775Z,101483.41
2023-10-04T16:04:24.309Z,101492.50
2023-10-04T16:06:29.196Z,101483.00
2023-10-04T16:08:32.179Z,101478.75
2023-10-04T16:10:39.302Z,101484.31
2023-10-04T16:12:43.514Z,101488.94
2023-10-04T16:14:47.588Z,101484.56
2023-10-04T16:16:52.158Z,101478.47
2023-10-04T16:18:56.996Z,101484.03
2023-10-04T16:21:02.194Z,101480.53
2023-10-04T16:23:06.756Z,101484.16
2023-10-04T16:25:10.856Z,101483.19
2023-10-04T16:27:16.647Z,101485.84
2023-10-04T16:29:20.833Z,101486.69
2023-10-04T16:31:24.765Z,101479.66
2023-10-04T16:33:28.776Z,101487.53
2023-10-04T16:35:32.944Z,101476.88
2023-10-04T16:37:36.260Z,101467.06
2023-10-04T16:39:40.118Z,101462.69
2023-10-04T16:41:44.030Z,101461.72
2023-10-04T16:43:50.194Z,101463.63
2023-10-04T16:45:56.617Z,101471.75
2023-10-04T16:48:01.954Z,101477.22
2023-10-04T16:50:07.088Z,101482.56
2023-10-04T16:52:13.633Z,101472.84
2023-10-04T16:54:17.843Z,101473.06
2023-10-04T16:56:24.563Z,101463.34
2023-10-04T16:58:28.827Z,101465.28
2023-10-04T17:00:34.262Z,101460.06
2023-10-04T17:02:37.461Z,101462.94
2023-10-04T17:04:41.191Z,101461.34
2023-10-04T17:06:45.264Z,101471.41
2023-10-04T17:08:49.303Z,101458.34
2023-10-04T17:10:53.265Z,101479.91
2023-10-04T17:12:57.418Z,101473.97
2023-10-04T17:15:01.600Z,101468.84
2023-10-04T17:17:07.374Z,101462.88
2023-10-04T17:19:11.388Z,101470.25
2023-10-04T17:21:15.803Z,101470.59
2023-10-04T17:23:20.010Z,101469.81
2023-10-04T17:25:23.990Z,101462.06
2023-10-04T17:27:27.337Z,101466.63
2023-10-04T17:29:31.305Z,101456.19
2023-10-04T17:31:35.474Z,101448.41
2023-10-04T17:33:40.932Z,101456.63
2023-10-04T17:35:45.012Z,101457.59
2023-10-04T17:37:49.241Z,101454.16
2023-10-04T17:39:53.566Z,101456.81
2023-10-04T17:41:59.651Z,101445.44
2023-10-04T17:44:03.724Z,101458.97
2023-10-04T17:46:08.102Z,101446.72
2023-10-04T17:48:12.168Z,101461.84
2023-10-04T17:50:17.882Z,101450.47
2023-10-04T17:52:22.384Z,101449.69
2023-10-04T17:54:26.652Z,101455.03
2023-10-04T17:56:34.679Z,101450.66
2023-10-04T17:58:39.278Z,101458.66
2023-10-04T18:00:42.960Z,101461.44
2023-10-04T18:02:48.400Z,101466.75
2023-10-04T18:04:52.837Z,101458.88
2023-10-04T18:06:58.195Z,101454.41
2023-10-04T18:09:02.966Z,101454.41
2023-10-04T18:11:09.146Z,101455.25
2023-10-04T18:13:13.879Z,101457.06
2023-10-04T18:15:18.983Z,101451.75
2023-10-04T18:17:23.968Z,101453.44
2023-10-04T18:19:28.518Z,101465.91
2023-10-04T18:21:32.546Z,101457.91
2023-10-04T18:23:38.685Z,101453.53
2023-10-04T18:25:42.943Z,101451.63
2023-10-04T18:27:47.086Z,101439.25
2023-10-04T18:29:50.927Z,101453.53
2023-10-04T18:31:54.709Z,101452.59
2023-10-04T18:33:58.829Z,101456.19
2023-10-04T18:36:03.664Z,101458.88
2023-10-04T18:38:07.396Z,101448.22
2023-10-04T18:40:14.658Z,101457.16
2023-10-04T18:42:19.001Z,101456.19
2023-10-04T18:44:23.457Z,101452.81
2023-10-04T18:46:27.806Z,101449.16
2023-10-04T18:48:32.041Z,101454.59
2023-10-04T18:50:35.999Z,101451.94
2023-10-04T18:52:40.227Z,101464.44
2023-10-04T18:54:44.189Z,101469.75
2023-10-04T18:56:49.984Z,101455.66
2023-10-04T18:58:54.615Z,101464.66
2023-10-04T19:01:00.685Z,101467.31
2023-10-04T19:03:03.935Z,101472.75
2023-10-04T19:05:10.162Z,101475.50
2023-10-04T19:07:16.325Z,101472.00
2023-10-04T19:09:24.538Z,101479.16
2023-10-04T19:11:30.988Z,101479.16
2023-10-04T19:13:40.650Z,101493.31
2023-10-04T19:15:47.452Z,101481.94
2023-10-04T19:17:52.015Z,101486.28
2023-10-04T19:19:57.221Z,101476.59
2023-10-04T19:22:02.093Z,101470.38
2023-10-04T19:24:08.894Z,101483.72
2023-10-04T19:26:17.256Z,101482.00
2023-10-04T19:28:22.437Z,101474.88
2023-10-04T19:30:35.386Z,101482.88
2023-10-04T19:32:40.850Z,101477.66
2023-10-04T19:34:46.261Z,101468.69
2023-10-04T19:36:50.392Z,101475.00
2023-10-04T19:38:56.859Z,101471.44
2023-10-04T19:41:01.501Z,101465.28
2023-10-04T19:43:08.170Z,101466.13
2023-10-04T19:45:14.208Z,101466.13
2023-10-04T19:47:20.301Z,101462.72
2023-10-04T19:49:24.845Z,101458.34
2023-10-04T19:51:30.140Z,101469.97
2023-10-04T19:53:34.847Z,101474.44
2023-10-04T19:55:40.341Z,101474.44
2023-10-04T19:57:45.327Z,101466.34
2023-10-04T19:59:51.168Z,101463.69
2023-10-04T20:01:55.272Z,101472.50
2023-10-04T20:04:03.137Z,101474.22
2023-10-04T20:06:11.652Z,101473.50
2023-10-04T20:08:17.615Z,101472.50
2023-10-04T20:10:22.343Z,101472.50
2023-10-04T20:12:25.890Z,101469.97
2023-10-04T20:14:33.276Z,101476.16
2023-10-04T20:16:38.692Z,101479.78
2023-10-04T20:18:43.153Z,101472.72
2023-10-04T20:20:48.744Z,101478.91
2023-10-04T20:22:53.205Z,101474.56
2023-10-04T20:24:57.877Z,101478.91
2023-10-04T20:27:06.505Z,101488.72
2023-10-04T20:29:10.549Z,101481.69
2023-10-04T20:31:15.032Z,101471.03
2023-10-04T20:33:22.307Z,101471.03
2023-10-04T20:35:25.588Z,101476.34
2023-10-04T20:37:32.837Z,101473.69
2023-10-04T20:39:40.626Z,101479.13
2023-10-04T20:41:44.769Z,101481.78
2023-10-04T20:43:49.314Z,101478.28
2023-10-04T20:45:54.025Z,101483.59
2023-10-04T20:47:59.399Z,101485.41
2023-10-04T20:50:07.732Z,101481.91
2023-10-04T20:52:12.941Z,101487.13
2023-10-04T20:54:25.245Z,101483.59
2023-10-04T20:56:33.031Z,101483.59
2023-10-04T20:58:37.180Z,101484.56
2023-10-04T21:00:42.199Z,101489.06
2023-10-04T21:02:49.729Z,101484.56
2023-10-04T21:04:53.799Z,101483.72
2023-10-04T21:06:58.825Z,101481.06
2023-10-04T21:09:03.310Z,101486.50
2023-10-04T21:11:11.271Z,101483.81
2023-10-04T21:13:15.638Z,101484.66
2023-10-04T21:15:21.025Z,101482.00
2023-10-04T21:17:25.514Z,101486.50
2023-10-04T21:19:32.842Z,101477.63
2023-10-04T21:21:37.488Z,101484.88
2023-10-04T21:23:42.520Z,101481.34
2023-10-04T21:25:46.905Z,101478.69
2023-10-04T21:27:53.499Z,101469.97
2023-10-04T21:29:57.219Z,101483.28
2023-10-04T21:32:01.597Z,101483.41
2023-10-04T21:34:12.340Z,101477.06
2023-10-04T21:36:18.822Z,101484.22
2023-10-04T21:38:28.194Z,101476.25
2023-10-04T21:40:33.840Z,101474.53
2023-10-04T21:42:38.863Z,101464.75
2023-10-04T21:44:48.201Z,101478.91
2023-10-04T21:46:52.627Z,101469.09
2023-10-04T21:48:57.759Z,101473.56
2023-10-04T21:51:02.769Z,101479.75
2023-10-04T21:53:08.133Z,101472.63
2023-10-04T21:55:13.649Z,101476.13
2023-10-04T21:57:17.936Z,101477.84
2023-10-04T21:59:22.198Z,101471.69
2023-10-04T22:01:29.721Z,101477.94
2023-10-04T22:03:36.386Z,101470.81
2023-10-04T22:05:41.229Z,101478.69
2023-10-04T22:07:47.495Z,101478.56
2023-10-04T22:09:52.824Z,101476.78
2023-10-04T22:11:57.268Z,101471.47
2023-10-04T22:14:01.574Z,101464.19
2023-10-04T22:16:06.387Z,101462.50
2023-10-04T22:18:14.706Z,101460.69
2023-10-04T22:20:19.368Z,101461.53
2023-10-04T22:22:23.941Z,101464.19
2023-10-04T22:24:28.316Z,101465.06
2023-10-04T22:26:32.862Z,101469.53
2023-10-04T22:28:37.208Z,101461.53
2023-10-04T22:30:41.693Z,101464.19
2023-10-04T22:32:46.664Z,101458.88
2023-10-04T22:34:53.678Z,101458.75
2023-10-04T22:36:58.594Z,101460.56
2023-10-04T22:39:04.668Z,101460.56
2023-10-04T22:41:09.224Z,101466.75
2023-10-04T22:43:13.834Z,101460.56
2023-10-04T22:45:21.356Z,101465.91
2023-10-04T22:47:27.716Z,101472.06
2023-10-04T22:49:32.532Z,101474.66
2023-10-04T22:51:38.783Z,101472.84
2023-10-04T22:53:43.620Z,101469.34
2023-10-04T22:55:47.617Z,101467.63
2023-10-04T22:57:52.350Z,101464.00
2023-10-04T22:59:57.837Z,101461.34
2023-10-04T23:02:02.381Z,101454.19
2023-10-04T23:04:08.374Z,101451.53
2023-10-04T23:06:14.166Z,101456.75
2023-10-04T23:08:19.677Z,101457.59
2023-10-04T23:10:24.282Z,101456.75
2023-10-04T23:12:28.076Z,101453.13
2023-10-04T23:14:37.016Z,101449.50
2023-10-04T23:16:45.143Z,101443.31
2023-10-04T23:18:51.549Z,101462.72
2023-10-04T23:21:08.652Z,101449.28
2023-10-04T23:23:13.808Z,101444.91
2023-10-04T23:25:21.783Z,101437.78
2023-10-04T23:27:29.598Z,101443.00
2023-10-04T23:29:33.364Z,101435.00
2023-10-04T23:31:38.884Z,101432.34
2023-10-04T23:33:46.443Z,101434.03
2023-10-04T23:35:58.847Z,101435.75
2023-10-04T23:38:15.057Z,101427.75
2023-10-04T23:40:25.918Z,101427.75
2023-10-04T23:42:35.480Z,101431.28
2023-10-04T23:44:42.193Z,101424.97
2023-10-04T23:46:46.588Z,101431.16
2023-10-04T23:48:51.263Z,101421.34
2023-10-04T23:50:57.566Z,101416.84
2023-10-04T23:53:04.041Z,101413.25
2023-10-04T23:55:09.467Z,101418.56